Time;durP1;ratioP1;P1;durP2;ratioP2;P2;SDS_P1;SDS_P2;PMS_P1;PMS_P2;Temp;Humidity;BMP_temperature;BMP_pressure;BME280_temperature;BME280_humidity;BME280_pressure;Samples;Min_cycle;Max_cycle;Signal;HPM_P1;HPM_P2
2023/10/13 00:02:07;;;;;;;11.48;6.07;;;17.60;98.60;;;;;;5002684;28;20053;-78
2023/10/13 00:04:36;;;;;;;11.02;6.05;;;17.60;98.60;;;;;;4999900;28;20471;-79
2023/10/13 00:07:04;;;;;;;16.08;6.90;;;17.60;98.50;;;;;;5000288;28;20033;-79
2023/10/13 00:09:36;;;;;;;16.55;6.85;;;17.60;98.60;;;;;;5005178;28;20026;-79
2023/10/13 00:12:13;;;;;;;10.88;6.40;;;17.60;98.60;;;;;;5001837;28;20030;-78
2023/10/13 00:14:45;;;;;;;15.20;6.55;;;17.60;98.60;;;;;;4999516;28;20056;-78
2023/10/13 00:17:19;;;;;;;14.13;6.90;;;17.60;98.70;;;;;;4997818;28;20026;-79
2023/10/13 00:19:45;;;;;;;14.98;6.57;;;17.60;98.70;;;;;;4997709;28;20213;-80
2023/10/13 00:22:16;;;;;;;11.75;6.85;;;17.60;98.70;;;;;;5006280;28;20014;-78
2023/10/13 00:24:43;;;;;;;12.00;6.50;;;17.60;98.70;;;;;;5002221;28;20037;-79
2023/10/13 00:27:29;;;;;;;12.07;5.80;;;17.60;98.70;;;;;;5004903;28;20385;-78
2023/10/13 00:30:22;;;;;;;17.05;6.32;;;17.60;98.80;;;;;;5003273;28;20073;-79
2023/10/13 00:32:56;;;;;;;11.23;5.82;;;17.60;98.70;;;;;;5000147;28;20026;-80
2023/10/13 00:35:29;;;;;;;13.20;6.07;;;17.60;98.70;;;;;;5001641;28;20041;-79
2023/10/13 00:38:04;;;;;;;13.55;6.65;;;17.60;98.70;;;;;;4997925;28;20026;-79
2023/10/13 00:46:07;;;;;;;11.40;6.43;;;17.60;98.90;;;;;;5002147;28;20045;-78
2023/10/13 00:48:42;;;;;;;12.90;6.07;;;17.60;98.90;;;;;;5006198;28;20017;-78
2023/10/13 00:51:17;;;;;;;12.13;6.90;;;17.60;99.00;;;;;;5006547;28;20041;-78
2023/10/13 00:53:44;;;;;;;13.75;6.88;;;17.60;99.00;;;;;;5004694;28;20690;-78
2023/10/13 00:56:21;;;;;;;14.85;7.05;;;17.60;99.00;;;;;;4998571;28;20473;-79
2023/10/13 00:58:52;;;;;;;14.88;6.82;;;17.60;99.00;;;;;;5004136;28;20033;-79
2023/10/13 01:01:18;;;;;;;16.98;7.32;;;17.60;99.00;;;;;;5004317;28;20034;-79
2023/10/13 01:03:59;;;;;;;13.70;7.10;;;17.60;99.00;;;;;;5003330;28;20731;-79
2023/10/13 01:06:25;;;;;;;11.88;6.80;;;17.60;99.10;;;;;;5001405;28;20022;-78
2023/10/13 01:08:59;;;;;;;12.27;6.70;;;17.60;99.10;;;;;;5002202;28;20092;-78
2023/10/13 01:11:27;;;;;;;12.13;6.65;;;17.60;99.10;;;;;;4998373;28;20045;-76
2023/10/13 01:13:53;;;;;;;11.75;6.07;;;17.60;99.10;;;;;;4996181;28;20461;-80
2023/10/13 01:16:23;;;;;;;13.18;7.15;;;17.60;99.10;;;;;;4997960;28;20037;-78
2023/10/13 01:18:49;;;;;;;12.45;6.25;;;17.60;99.10;;;;;;5003861;28;20481;-78
2023/10/13 01:21:26;;;;;;;11.32;5.43;;;17.60;99.20;;;;;;5001271;28;20133;-79
2023/10/13 01:23:53;;;;;;;11.77;6.28;;;17.60;99.10;;;;;;5003753;28;20018;-80
2023/10/13 01:26:24;;;;;;;15.88;6.35;;;17.60;99.10;;;;;;4999632;28;20037;-77
2023/10/13 01:28:59;;;;;;;11.45;6.25;;;17.60;99.20;;;;;;5001081;28;20076;-78
2023/10/13 01:31:26;;;;;;;10.90;7.13;;;17.60;99.20;;;;;;4992943;28;20038;-77
2023/10/13 01:33:58;;;;;;;12.32;6.93;;;17.70;99.20;;;;;;5001821;28;20479;-79
2023/10/13 01:36:25;;;;;;;15.93;7.38;;;17.70;99.20;;;;;;4997143;28;20040;-80
2023/10/13 01:38:51;;;;;;;15.38;7.57;;;17.70;99.30;;;;;;5000556;28;20022;-78
2023/10/13 01:41:18;;;;;;;12.27;7.10;;;17.70;99.20;;;;;;4996241;28;20049;-78
2023/10/13 01:43:43;;;;;;;17.55;8.48;;;17.70;99.20;;;;;;4999967;28;20431;-79
2023/10/13 01:46:13;;;;;;;15.98;8.55;;;17.70;99.20;;;;;;4997371;28;20445;-79
2023/10/13 01:48:39;;;;;;;17.77;9.93;;;17.70;99.30;;;;;;5000315;28;20025;-77
2023/10/13 01:51:09;;;;;;;17.17;10.95;;;17.80;99.30;;;;;;4998017;28;20432;-79
2023/10/13 01:53:38;;;;;;;20.40;13.02;;;17.70;99.30;;;;;;5000718;28;20500;-77
2023/10/13 01:56:11;;;;;;;23.70;16.65;;;17.80;99.40;;;;;;5000812;28;20484;-77
2023/10/13 01:58:47;;;;;;;23.25;16.02;;;17.80;99.40;;;;;;5001184;28;20448;-81
2023/10/13 02:01:21;;;;;;;33.58;22.88;;;17.80;99.50;;;;;;5000759;28;20046;-80
2023/10/13 02:03:47;;;;;;;29.63;23.43;;;17.80;99.50;;;;;;5005721;28;20025;-81
2023/10/13 02:06:17;;;;;;;33.17;25.50;;;17.90;99.60;;;;;;5003567;28;20375;-77
2023/10/13 02:08:43;;;;;;;34.38;27.38;;;17.90;99.70;;;;;;5003899;28;20026;-78
2023/10/13 02:11:09;;;;;;;39.20;32.17;;;18.00;99.80;;;;;;5000775;28;20097;-79
2023/10/13 02:13:41;;;;;;;41.05;32.42;;;18.00;99.90;;;;;;4999415;28;20030;-80
2023/10/13 02:16:07;;;;;;;45.05;34.35;;;18.10;99.90;;;;;;4994960;28;20057;-77
2023/10/13 02:18:34;;;;;;;42.10;33.95;;;18.10;99.90;;;;;;4996026;28;20061;-80
2023/10/13 02:21:12;;;;;;;45.60;35.17;;;18.10;99.90;;;;;;4993484;28;20041;-78
2023/10/13 02:23:45;;;;;;;44.00;33.33;;;18.20;99.90;;;;;;4997285;28;21419;-77
2023/10/13 02:26:14;;;;;;;45.83;34.90;;;18.20;99.90;;;;;;4999262;28;20408;-78
2023/10/13 02:28:40;;;;;;;44.58;33.53;;;18.20;99.90;;;;;;5001357;28;20038;-77
2023/10/13 02:31:07;;;;;;;43.70;34.65;;;18.30;99.90;;;;;;4999130;28;20088;-78
2023/10/13 02:33:34;;;;;;;41.28;32.22;;;18.30;99.90;;;;;;4993108;28;20030;-78
2023/10/13 02:36:05;;;;;;;39.25;29.83;;;18.30;99.90;;;;;;4993638;28;20049;-79
2023/10/13 02:38:45;;;;;;;39.45;30.08;;;18.30;99.90;;;;;;5001322;28;20091;-79
2023/10/13 02:41:18;;;;;;;39.70;27.88;;;18.30;99.90;;;;;;4996366;28;20125;-80
2023/10/13 02:43:44;;;;;;;36.40;28.15;;;18.30;99.90;;;;;;5001730;28;20018;-80
2023/10/13 02:46:10;;;;;;;41.20;27.92;;;18.30;99.90;;;;;;5002428;28;20172;-78
2023/10/13 02:48:42;;;;;;;35.45;27.35;;;18.30;99.90;;;;;;4998220;28;20434;-79
2023/10/13 02:51:17;;;;;;;31.95;26.17;;;18.30;99.90;;;;;;5001561;28;20104;-77
2023/10/13 02:53:49;;;;;;;35.17;25.13;;;18.40;99.90;;;;;;4999529;28;20441;-78
2023/10/13 02:56:20;;;;;;;33.92;23.23;;;18.30;99.90;;;;;;4999964;28;20452;-77
2023/10/13 02:58:53;;;;;;;30.83;23.15;;;18.30;99.90;;;;;;4997407;28;20058;-77
2023/10/13 03:01:20;;;;;;;31.05;22.63;;;18.30;99.90;;;;;;5001808;28;20516;-80
2023/10/13 03:03:51;;;;;;;28.85;20.67;;;18.40;99.90;;;;;;4999662;28;20022;-79
2023/10/13 03:06:23;;;;;;;24.95;18.98;;;18.40;99.90;;;;;;5002961;28;20037;-79
2023/10/13 03:08:48;;;;;;;28.40;19.23;;;18.40;99.90;;;;;;4997031;28;20109;-78
2023/10/13 03:11:16;;;;;;;29.00;18.75;;;18.50;99.90;;;;;;5002677;28;20173;-80
2023/10/13 03:13:46;;;;;;;30.40;19.15;;;18.40;99.90;;;;;;5003387;28;20062;-80
2023/10/13 03:16:16;;;;;;;26.98;18.10;;;18.50;99.90;;;;;;5002274;28;20037;-78
2023/10/13 03:18:56;;;;;;;28.52;17.58;;;18.50;99.90;;;;;;5006070;28;20384;-80
2023/10/13 03:21:29;;;;;;;26.15;19.25;;;18.50;99.90;;;;;;5001044;28;20148;-80
2023/10/13 03:24:07;;;;;;;23.58;17.60;;;18.50;99.90;;;;;;5002441;28;20032;-79
2023/10/13 03:26:35;;;;;;;24.50;17.77;;;18.50;99.90;;;;;;5001807;28;20504;-77
2023/10/13 03:29:03;;;;;;;26.83;18.83;;;18.40;99.90;;;;;;5001927;28;20380;-78
2023/10/13 03:31:30;;;;;;;24.77;17.92;;;18.40;99.90;;;;;;5001008;28;20034;-78
2023/10/13 03:34:00;;;;;;;27.08;18.60;;;18.40;99.90;;;;;;5005889;28;20496;-79
2023/10/13 03:39:11;;;;;;;28.35;18.58;;;18.40;99.90;;;;;;4996363;28;20100;-81
2023/10/13 03:41:39;;;;;;;29.45;18.77;;;18.40;99.90;;;;;;5000825;28;20041;-79
2023/10/13 03:44:12;;;;;;;21.75;17.35;;;18.40;99.90;;;;;;5003027;28;20030;-79
2023/10/13 03:46:40;;;;;;;23.53;16.63;;;18.40;99.90;;;;;;5000912;28;20056;-77
2023/10/13 03:49:12;;;;;;;26.60;16.70;;;18.40;99.90;;;;;;5003213;28;20436;-80
2023/10/13 03:51:39;;;;;;;21.20;16.63;;;18.40;99.90;;;;;;5002968;28;20033;-80
2023/10/13 03:54:08;;;;;;;25.67;16.65;;;18.40;99.90;;;;;;4998849;28;20036;-79
2023/10/13 03:56:40;;;;;;;24.30;16.38;;;18.40;99.90;;;;;;5002229;28;20054;-79
2023/10/13 03:59:09;;;;;;;23.98;16.58;;;18.30;99.90;;;;;;4999656;28;20034;-79
2023/10/13 04:04:34;;;;;;;22.40;17.00;;;18.30;99.90;;;;;;4999096;28;20034;-80
2023/10/13 04:15:15;;;;;;;22.40;15.00;;;18.30;99.90;;;;;;4999211;28;20049;-79
2023/10/13 04:17:45;;;;;;;23.35;15.15;;;18.30;99.90;;;;;;4995916;28;20030;-81
2023/10/13 04:25:35;;;;;;;24.13;14.70;;;18.20;99.90;;;;;;4994175;28;20034;-78
2023/10/13 04:30:52;;;;;;;23.65;14.23;;;18.20;99.90;;;;;;4998737;28;20508;-79
2023/10/13 04:38:56;;;;;;;21.08;12.45;;;18.10;99.90;;;;;;4997580;28;20056;-78
2023/10/13 04:41:31;;;;;;;23.25;12.93;;;18.10;99.90;;;;;;4999765;28;20041;-78
2023/10/13 04:49:35;;;;;;;23.38;12.40;;;18.10;99.90;;;;;;4999187;28;20088;-80
2023/10/13 04:57:34;;;;;;;21.50;11.95;;;18.10;99.90;;;;;;4992424;28;20216;-81
2023/10/13 05:02:54;;;;;;;21.38;12.10;;;18.10;99.90;;;;;;4990352;28;20035;-78
2023/10/13 05:49:29;;;;;;;29.52;14.10;;;18.30;99.90;;;;;;5015745;28;20033;-77
2023/10/13 05:52:06;;;;;;;25.05;13.50;;;18.20;99.90;;;;;;5021835;28;20040;-78
2023/10/13 06:30:14;;;;;;;17.80;10.68;;;18.40;98.50;;;;;;5023181;28;20115;-76
2023/10/13 06:32:40;;;;;;;15.23;9.60;;;18.40;98.30;;;;;;5018237;28;20072;-75
2023/10/13 06:35:15;;;;;;;19.90;10.93;;;18.40;98.30;;;;;;5024668;28;20437;-75
2023/10/13 06:37:42;;;;;;;18.98;10.52;;;18.50;98.20;;;;;;5021660;28;21193;-75
2023/10/13 06:43:11;;;;;;;20.05;10.65;;;18.50;98.10;;;;;;5023481;28;20079;-75
2023/10/13 06:45:37;;;;;;;23.65;10.55;;;18.60;97.80;;;;;;5024330;28;21668;-75
2023/10/13 06:48:04;;;;;;;15.50;9.82;;;18.60;97.70;;;;;;5023081;28;20417;-75
2023/10/13 06:50:38;;;;;;;20.67;10.82;;;18.60;97.60;;;;;;5017616;28;20029;-75
2023/10/13 06:53:04;;;;;;;19.88;9.60;;;18.60;97.40;;;;;;5024601;28;20025;-74
2023/10/13 06:55:35;;;;;;;24.63;10.18;;;18.60;97.10;;;;;;5015232;28;20443;-75
2023/10/13 06:58:01;;;;;;;19.35;9.63;;;18.70;96.70;;;;;;5021839;28;20052;-74
2023/10/13 07:00:29;;;;;;;23.02;9.48;;;18.70;96.50;;;;;;5019025;28;20871;-76
2023/10/13 07:05:59;;;;;;;17.88;8.93;;;18.80;96.10;;;;;;4982659;28;20035;-74
2023/10/13 07:08:25;;;;;;;17.73;8.48;;;18.80;95.90;;;;;;5010122;28;20168;-74
2023/10/13 07:13:30;;;;;;;17.13;9.40;;;18.90;95.50;;;;;;5018874;28;20045;-75
2023/10/13 07:16:05;;;;;;;16.25;8.57;;;19.00;95.20;;;;;;5025901;28;20029;-74
2023/10/13 07:18:36;;;;;;;18.98;9.48;;;19.00;95.00;;;;;;5018363;28;20455;-75
2023/10/13 07:21:09;;;;;;;15.00;8.52;;;19.10;94.70;;;;;;5024667;28;20057;-74
2023/10/13 07:23:35;;;;;;;17.30;8.38;;;19.10;94.30;;;;;;5023004;28;20391;-75
2023/10/13 07:26:04;;;;;;;18.10;8.82;;;19.10;94.10;;;;;;5019402;28;20455;-74
2023/10/13 07:28:36;;;;;;;20.27;8.80;;;19.10;93.70;;;;;;5024088;28;20033;-74
2023/10/13 07:33:31;;;;;;;19.95;8.70;;;19.20;93.50;;;;;;5021173;28;20034;-75
2023/10/13 07:39:24;;;;;;;19.77;8.95;;;19.30;93.40;;;;;;4945555;28;20513;-74
2023/10/13 07:41:54;;;;;;;15.88;8.60;;;19.30;93.20;;;;;;5018489;28;20045;-75
2023/10/13 07:44:24;;;;;;;18.25;8.50;;;19.40;92.80;;;;;;5017696;28;20425;-75
2023/10/13 07:46:58;;;;;;;22.70;9.52;;;19.50;92.40;;;;;;5024485;28;20026;-74
2023/10/13 07:49:30;;;;;;;19.33;8.63;;;19.50;92.50;;;;;;5020269;28;20029;-75
2023/10/13 07:52:00;;;;;;;21.73;8.68;;;19.60;92.20;;;;;;5024839;28;20391;-75
2023/10/13 07:54:26;;;;;;;16.83;8.20;;;19.70;92.30;;;;;;5024200;28;20037;-76
2023/10/13 07:56:54;;;;;;;20.20;8.75;;;19.70;92.10;;;;;;5024210;28;20046;-74
2023/10/13 07:59:22;;;;;;;18.88;8.75;;;19.80;91.90;;;;;;5021551;28;20131;-75
2023/10/13 08:02:06;;;;;;;17.52;9.07;;;19.80;91.30;;;;;;5024438;28;20456;-76
2023/10/13 08:04:35;;;;;;;17.20;7.90;;;19.80;91.10;;;;;;5019626;28;20525;-75
2023/10/13 08:07:11;;;;;;;24.50;9.32;;;19.90;90.80;;;;;;5025405;28;20026;-74
2023/10/13 08:09:40;;;;;;;20.00;9.07;;;19.90;90.70;;;;;;5025848;28;20025;-75
2023/10/13 08:12:11;;;;;;;16.23;9.20;;;19.80;90.70;;;;;;5026890;28;20460;-75
2023/10/13 08:14:38;;;;;;;16.33;9.82;;;19.90;90.30;;;;;;5020652;28;20029;-74
2023/10/13 08:17:12;;;;;;;19.55;9.63;;;19.90;90.20;;;;;;5024399;28;20017;-74
2023/10/13 08:19:49;;;;;;;18.15;9.52;;;19.90;90.60;;;;;;5024090;28;20028;-74
2023/10/13 08:30:21;;;;;;;21.45;9.43;;;20.00;90.90;;;;;;5019933;28;20040;-74
2023/10/13 08:32:54;;;;;;;18.02;9.40;;;20.00;90.70;;;;;;5017090;28;20039;-74
2023/10/13 08:43:13;;;;;;;20.23;9.02;;;20.00;90.40;;;;;;4985380;28;20754;-74
2023/10/13 09:04:20;;;;;;;18.52;9.77;;;20.20;89.00;;;;;;5020299;28;20503;-74
2023/10/13 09:12:35;;;;;;;21.98;8.93;;;20.10;88.80;;;;;;5018235;28;20022;-74
2023/10/13 09:15:17;;;;;;;23.88;10.05;;;20.20;88.40;;;;;;5024954;28;20037;-75
2023/10/13 09:18:12;;;;;;;27.38;9.45;;;20.20;88.30;;;;;;5023744;28;20044;-74
2023/10/13 09:23:19;;;;;;;18.85;9.50;;;20.20;87.80;;;;;;5016197;28;20058;-75
2023/10/13 09:25:57;;;;;;;17.85;8.82;;;20.30;87.60;;;;;;5022488;28;20056;-76
2023/10/13 09:28:26;;;;;;;16.08;9.65;;;20.30;87.50;;;;;;5020955;28;20448;-75
2023/10/13 09:30:56;;;;;;;21.67;9.88;;;20.30;87.40;;;;;;5025242;28;20038;-74
2023/10/13 09:33:33;;;;;;;18.77;10.13;;;20.30;87.60;;;;;;5020969;28;20017;-73
2023/10/13 09:36:06;;;;;;;19.83;9.85;;;20.30;87.50;;;;;;5021585;28;20033;-73
2023/10/13 09:38:40;;;;;;;17.10;10.23;;;20.30;87.40;;;;;;5017967;28;20029;-73
2023/10/13 09:41:20;;;;;;;22.73;9.75;;;20.30;87.30;;;;;;5014675;28;20037;-73
2023/10/13 09:43:46;;;;;;;20.42;10.07;;;20.30;87.00;;;;;;5020602;28;20159;-72
2023/10/13 09:46:23;;;;;;;16.05;8.43;;;20.40;86.80;;;;;;5038157;28;20065;-76
2023/10/13 09:49:04;;;;;;;21.17;9.57;;;20.40;86.70;;;;;;5023030;28;20634;-76
2023/10/13 09:51:33;;;;;;;18.58;9.73;;;20.40;87.00;;;;;;5004693;28;20038;-75
2023/10/13 09:54:09;;;;;;;19.27;9.60;;;20.30;87.60;;;;;;5021098;28;20219;-75
2023/10/13 09:56:51;;;;;;;16.73;9.75;;;20.20;87.50;;;;;;5014395;28;20057;-74
2023/10/13 09:59:53;;;;;;;20.98;9.85;;;20.20;87.80;;;;;;5019359;28;20021;-76
2023/10/13 10:02:25;;;;;;;18.70;9.75;;;20.20;87.70;;;;;;4999634;28;20815;-75
2023/10/13 10:05:21;;;;;;;21.38;10.23;;;20.10;88.00;;;;;;5002931;28;20377;-76
2023/10/13 10:07:55;;;;;;;23.88;9.43;;;20.10;87.70;;;;;;5017254;28;20061;-76
2023/10/13 10:10:25;;;;;;;21.60;9.85;;;20.20;87.00;;;;;;5021051;28;20371;-75
2023/10/13 10:13:16;;;;;;;18.60;10.18;;;20.20;87.10;;;;;;5019863;28;20026;-75
2023/10/13 10:15:47;;;;;;;19.63;9.30;;;20.30;86.30;;;;;;5008762;28;20033;-77
2023/10/13 10:18:21;;;;;;;21.80;10.55;;;20.40;86.00;;;;;;5018520;28;20037;-76
2023/10/13 10:20:52;;;;;;;22.80;9.15;;;20.40;85.70;;;;;;5009931;28;20045;-75
2023/10/13 10:23:36;;;;;;;25.00;10.15;;;20.60;86.00;;;;;;5010026;28;20025;-75
2023/10/13 10:26:19;;;;;;;22.13;9.73;;;20.60;85.70;;;;;;5018687;28;20091;-74
2023/10/13 10:28:45;;;;;;;22.35;9.45;;;20.60;85.70;;;;;;5022047;28;20040;-75
2023/10/13 10:31:12;;;;;;;17.88;8.93;;;20.60;85.90;;;;;;5020895;28;20029;-75
2023/10/13 10:33:39;;;;;;;20.15;8.85;;;20.70;85.50;;;;;;5019775;28;20022;-79
2023/10/13 10:36:06;;;;;;;21.77;9.35;;;20.90;85.10;;;;;;5015832;28;20034;-74
2023/10/13 10:38:38;;;;;;;18.95;8.95;;;21.00;84.00;;;;;;5018692;28;20123;-75
2023/10/13 10:41:05;;;;;;;22.98;9.77;;;21.10;83.40;;;;;;5017206;28;20048;-77
2023/10/13 10:43:43;;;;;;;24.08;9.98;;;21.20;83.50;;;;;;5016035;28;20498;-76
2023/10/13 10:46:11;;;;;;;25.88;9.88;;;21.30;82.90;;;;;;5012872;28;20048;-74
2023/10/13 10:48:42;;;;;;;21.92;9.15;;;21.40;82.20;;;;;;5015957;28;20436;-75
2023/10/13 10:51:22;;;;;;;18.45;10.20;;;21.50;81.70;;;;;;5017576;28;20044;-75
2023/10/13 10:53:50;;;;;;;21.00;8.25;;;21.50;81.30;;;;;;5021162;28;20045;-75
2023/10/13 10:56:24;;;;;;;20.95;8.95;;;21.50;81.20;;;;;;5015362;28;20064;-77
2023/10/13 10:58:57;;;;;;;20.13;9.27;;;21.60;80.70;;;;;;5017577;28;20065;-75
2023/10/13 11:01:24;;;;;;;21.95;8.82;;;21.60;80.60;;;;;;5012555;28;20033;-76
2023/10/13 11:07:06;;;;;;;23.85;9.77;;;21.80;80.10;;;;;;4976206;28;20404;-76
2023/10/13 11:09:37;;;;;;;18.63;9.55;;;21.90;80.00;;;;;;4974247;28;20054;-75
2023/10/13 11:12:14;;;;;;;19.50;9.18;;;21.90;79.80;;;;;;4995830;28;20034;-75
2023/10/13 11:14:48;;;;;;;18.05;8.48;;;22.10;79.70;;;;;;5018335;28;20083;-75
2023/10/13 11:17:24;;;;;;;26.25;8.98;;;22.10;79.30;;;;;;5020842;28;20044;-74
2023/10/13 11:19:50;;;;;;;20.27;9.77;;;22.10;78.80;;;;;;5019441;28;20115;-76
2023/10/13 11:22:36;;;;;;;20.35;9.50;;;22.20;78.80;;;;;;5014912;28;20081;-77
2023/10/13 11:25:09;;;;;;;26.60;10.68;;;22.30;79.20;;;;;;5017585;28;20030;-77
2023/10/13 11:27:55;;;;;;;22.20;9.63;;;22.40;78.40;;;;;;5024349;28;20036;-75
2023/10/13 11:30:25;;;;;;;25.75;9.32;;;22.40;78.10;;;;;;5018257;28;20575;-75
2023/10/13 11:33:10;;;;;;;20.15;9.70;;;22.50;78.50;;;;;;5018408;28;20510;-75
2023/10/13 11:38:27;;;;;;;19.45;9.20;;;22.40;77.70;;;;;;5023158;28;20033;-75
2023/10/13 11:46:13;;;;;;;22.30;8.38;;;22.30;78.00;;;;;;5020238;28;20040;-75
2023/10/13 11:48:44;;;;;;;23.15;8.77;;;22.30;77.80;;;;;;5020566;28;20025;-75
2023/10/13 11:51:46;;;;;;;18.48;8.82;;;22.20;77.80;;;;;;5017443;28;20132;-76
2023/10/13 11:54:04;;;;;;;19.33;7.93;;;22.30;78.00;;;;;;5017984;28;20038;-74
2023/10/13 11:56:30;;;;;;;22.73;8.95;;;22.40;77.60;;;;;;5019499;28;21737;-76
2023/10/13 11:59:01;;;;;;;17.95;8.00;;;22.40;78.10;;;;;;5023220;28;20037;-77
2023/10/13 12:07:17;;;;;;;18.88;7.78;;;22.80;75.30;;;;;;5015309;28;20045;-75
2023/10/13 12:12:40;;;;;;;18.92;7.75;;;23.10;75.00;;;;;;5020811;28;20246;-74
2023/10/13 12:15:09;;;;;;;19.60;8.32;;;23.20;75.10;;;;;;5024619;28;20733;-75
2023/10/13 12:17:36;;;;;;;17.83;7.60;;;23.20;75.30;;;;;;5018754;28;20030;-75
2023/10/13 12:20:17;;;;;;;23.75;8.38;;;23.30;75.20;;;;;;5018337;28;20056;-77
2023/10/13 12:22:43;;;;;;;19.80;7.75;;;23.30;75.50;;;;;;5019403;28;20086;-75
2023/10/13 12:28:12;;;;;;;22.83;8.45;;;23.30;75.10;;;;;;5018092;28;20071;-78
2023/10/13 12:30:54;;;;;;;20.55;7.95;;;23.30;75.50;;;;;;5016270;28;20030;-77
2023/10/13 12:33:28;;;;;;;19.40;8.70;;;23.20;75.90;;;;;;5015782;28;20728;-75
2023/10/13 12:36:09;;;;;;;17.83;7.95;;;23.10;76.30;;;;;;5015298;28;20044;-75
2023/10/13 12:38:37;;;;;;;18.15;9.07;;;23.00;77.30;;;;;;5018866;28;20021;-75
2023/10/13 12:52:03;;;;;;;20.15;8.20;;;22.50;79.90;;;;;;5013380;28;19951;-76
2023/10/13 12:54:35;;;;;;;17.75;7.38;;;22.50;80.20;;;;;;5021133;28;20027;-75
2023/10/13 12:57:02;;;;;;;17.02;7.20;;;22.40;79.90;;;;;;5016003;28;20037;-75
2023/10/13 12:59:28;;;;;;;15.73;8.32;;;22.40;79.80;;;;;;5021556;28;20472;-75
2023/10/13 13:01:54;;;;;;;20.65;7.82;;;22.40;79.20;;;;;;5015281;28;20030;-75
2023/10/13 13:04:20;;;;;;;15.25;7.10;;;22.40;78.20;;;;;;5017281;28;20463;-77
2023/10/13 13:06:53;;;;;;;17.50;7.78;;;22.50;78.20;;;;;;5017080;28;20029;-76
2023/10/13 13:09:25;;;;;;;16.73;8.13;;;22.50;77.80;;;;;;5017358;28;20021;-73
2023/10/13 13:11:57;;;;;;;17.40;7.32;;;22.50;77.50;;;;;;5016216;28;20066;-75
2023/10/13 13:14:28;;;;;;;17.30;7.43;;;22.60;77.50;;;;;;5018143;28;20029;-74
2023/10/13 13:17:04;;;;;;;20.40;8.15;;;22.60;77.10;;;;;;5016692;28;20030;-77
2023/10/13 13:19:38;;;;;;;14.40;7.97;;;22.60;78.30;;;;;;5018840;28;20029;-77
2023/10/13 13:22:11;;;;;;;18.45;8.07;;;22.60;79.00;;;;;;5016678;28;20438;-75
2023/10/13 13:24:44;;;;;;;14.25;8.50;;;22.60;79.30;;;;;;5019689;28;20508;-73
2023/10/13 13:27:15;;;;;;;16.50;8.23;;;22.60;79.60;;;;;;5021011;28;20025;-74
2023/10/13 13:29:44;;;;;;;18.27;8.48;;;22.50;78.60;;;;;;5014706;28;20041;-75
2023/10/13 13:32:23;;;;;;;20.38;9.13;;;22.50;78.90;;;;;;5019410;28;20091;-75
2023/10/13 13:35:13;;;;;;;20.98;8.00;;;22.40;79.30;;;;;;5019291;28;20037;-74
2023/10/13 13:37:39;;;;;;;19.95;9.02;;;22.30;79.30;;;;;;5021095;28;20067;-75
2023/10/13 13:40:15;;;;;;;21.50;8.70;;;22.30;79.60;;;;;;5015936;28;20843;-75
2023/10/13 13:42:44;;;;;;;14.02;7.82;;;22.20;80.20;;;;;;5018779;28;20111;-74
2023/10/13 13:45:31;;;;;;;15.38;8.25;;;22.20;80.00;;;;;;5018545;28;20603;-73
2023/10/13 13:47:57;;;;;;;17.23;8.77;;;22.20;80.50;;;;;;5020991;28;20422;-73
2023/10/13 13:50:26;;;;;;;18.00;8.07;;;22.30;80.30;;;;;;5012335;28;20038;-74
2023/10/13 13:52:55;;;;;;;15.50;8.45;;;22.20;80.10;;;;;;5020302;28;20044;-74
2023/10/13 13:55:28;;;;;;;15.18;7.63;;;22.20;80.00;;;;;;5016068;28;20038;-76
2023/10/13 13:57:56;;;;;;;16.35;8.57;;;22.10;80.10;;;;;;5013865;28;20816;-73
2023/10/13 14:00:36;;;;;;;20.88;9.00;;;22.10;79.50;;;;;;5015918;28;20052;-74
2023/10/13 14:03:12;;;;;;;16.40;8.02;;;22.10;79.80;;;;;;5011927;28;20782;-74
2023/10/13 14:05:43;;;;;;;16.20;7.90;;;22.00;79.80;;;;;;5012691;28;20030;-74
2023/10/13 14:08:11;;;;;;;15.98;7.20;;;22.00;80.10;;;;;;5021228;28;20060;-73
2023/10/13 14:13:48;;;;;;;17.98;7.97;;;21.90;80.10;;;;;;4995057;28;20378;-75
2023/10/13 14:16:29;;;;;;;15.30;7.78;;;22.00;80.40;;;;;;5016923;28;20495;-73
2023/10/13 14:18:55;;;;;;;19.25;7.68;;;22.00;80.50;;;;;;5019018;28;20017;-74
2023/10/13 14:21:24;;;;;;;18.85;8.55;;;22.00;80.70;;;;;;5015250;28;20127;-74
2023/10/13 14:23:53;;;;;;;16.45;8.15;;;22.00;80.50;;;;;;5010394;28;20045;-78
2023/10/13 14:26:21;;;;;;;15.93;8.10;;;22.00;81.30;;;;;;5013562;28;20034;-74
2023/10/13 14:29:08;;;;;;;19.35;7.85;;;21.90;80.90;;;;;;5016750;28;20507;-75
2023/10/13 14:31:39;;;;;;;21.02;7.95;;;21.80;80.70;;;;;;5011922;28;20427;-75
2023/10/13 14:34:06;;;;;;;20.23;7.90;;;21.80;81.20;;;;;;5012561;28;20037;-74
2023/10/13 14:36:35;;;;;;;17.35;7.72;;;21.80;81.30;;;;;;5013602;28;20033;-77
2023/10/13 14:39:02;;;;;;;17.30;7.78;;;21.80;80.50;;;;;;5010711;28;20083;-74
2023/10/13 14:41:29;;;;;;;16.73;6.80;;;21.80;80.60;;;;;;5009184;28;20061;-74
2023/10/13 14:44:04;;;;;;;19.40;8.95;;;21.80;80.70;;;;;;5007898;28;20033;-75
2023/10/13 14:46:31;;;;;;;16.13;8.18;;;21.80;81.10;;;;;;5012773;28;20417;-74
2023/10/13 14:48:56;;;;;;;21.23;7.97;;;21.80;80.50;;;;;;5012930;28;20105;-74
2023/10/13 14:51:22;;;;;;;15.68;7.03;;;21.80;80.30;;;;;;5010545;28;20128;-74
2023/10/13 14:53:48;;;;;;;14.05;7.63;;;21.90;80.40;;;;;;5013639;28;20439;-75
2023/10/13 14:56:15;;;;;;;14.57;7.03;;;21.90;80.00;;;;;;4974648;28;1278874;-73
2023/10/13 14:58:44;;;;;;;20.80;7.20;;;22.00;79.60;;;;;;5017473;28;20036;-72
2023/10/13 15:01:17;;;;;;;22.80;7.97;;;22.00;79.40;;;;;;5016828;28;20548;-75
2023/10/13 15:03:44;;;;;;;17.40;7.70;;;22.00;78.80;;;;;;5017102;28;20064;-78
2023/10/13 15:06:20;;;;;;;17.73;7.22;;;22.00;78.60;;;;;;5012925;28;20033;-74
2023/10/13 15:08:47;;;;;;;15.05;6.75;;;22.10;79.20;;;;;;5014087;28;20029;-76
2023/10/13 15:11:13;;;;;;;18.48;7.07;;;22.10;79.10;;;;;;5014705;28;20069;-77
2023/10/13 15:13:42;;;;;;;19.95;7.10;;;22.10;78.30;;;;;;5020615;28;20029;-74
2023/10/13 15:16:18;;;;;;;15.45;7.30;;;22.20;78.10;;;;;;5013953;28;20125;-75
2023/10/13 15:18:52;;;;;;;18.60;6.75;;;22.20;78.20;;;;;;5011960;28;20036;-76
2023/10/13 15:21:35;;;;;;;16.90;7.30;;;22.10;77.90;;;;;;5014489;28;20049;-75
2023/10/13 15:24:13;;;;;;;20.45;7.43;;;22.20;78.50;;;;;;5012186;28;20264;-74
2023/10/13 15:26:45;;;;;;;17.25;7.47;;;22.20;78.20;;;;;;5010354;28;20874;-75
2023/10/13 15:29:12;;;;;;;19.80;8.73;;;22.10;78.40;;;;;;5015744;28;20026;-75
2023/10/13 15:31:41;;;;;;;19.73;7.60;;;22.00;78.40;;;;;;5012859;28;20472;-76
2023/10/13 15:34:15;;;;;;;18.63;7.45;;;22.00;78.50;;;;;;5015119;28;20029;-74
2023/10/13 15:36:42;;;;;;;19.25;6.40;;;22.00;78.80;;;;;;5013079;28;20033;-75
2023/10/13 15:39:10;;;;;;;14.23;6.63;;;21.90;78.60;;;;;;5015623;28;20031;-77
2023/10/13 15:41:40;;;;;;;17.38;7.68;;;21.90;78.60;;;;;;5015606;28;20128;-76
2023/10/13 15:44:15;;;;;;;17.10;7.13;;;21.90;78.60;;;;;;5015536;28;20029;-75
2023/10/13 15:46:41;;;;;;;18.63;6.75;;;21.90;78.80;;;;;;5008574;28;20107;-76
2023/10/13 15:49:06;;;;;;;17.27;7.20;;;21.90;79.30;;;;;;5017940;28;20083;-76
2023/10/13 15:51:34;;;;;;;20.17;7.03;;;21.90;79.30;;;;;;5011720;28;20057;-75
2023/10/13 15:54:00;;;;;;;23.55;8.93;;;21.80;79.70;;;;;;5017994;28;20037;-74
2023/10/13 15:56:25;;;;;;;20.13;8.32;;;21.80;80.30;;;;;;5013227;28;20045;-75
2023/10/13 15:58:51;;;;;;;20.20;8.32;;;21.70;81.40;;;;;;5015503;28;20399;-75
2023/10/13 16:01:17;;;;;;;21.08;8.25;;;21.60;82.40;;;;;;5016409;28;20034;-77
2023/10/13 16:03:44;;;;;;;19.13;7.10;;;21.50;82.80;;;;;;5009009;28;20248;-75
2023/10/13 16:06:10;;;;;;;16.98;6.78;;;21.40;82.80;;;;;;5018990;28;20026;-74
2023/10/13 16:08:37;;;;;;;20.20;7.38;;;21.30;83.20;;;;;;5012545;28;20055;-77
2023/10/13 16:11:07;;;;;;;19.23;7.50;;;21.20;83.50;;;;;;5006812;28;20044;-74
2023/10/13 16:13:35;;;;;;;16.38;7.43;;;21.20;83.30;;;;;;4998290;28;20088;-74
2023/10/13 16:16:02;;;;;;;21.02;7.60;;;21.20;83.30;;;;;;5001822;28;20091;-74
2023/10/13 16:18:32;;;;;;;18.63;6.90;;;21.20;83.20;;;;;;4996747;28;20053;-73
2023/10/13 16:21:03;;;;;;;18.95;8.27;;;21.20;83.30;;;;;;4998386;28;20117;-76
2023/10/13 16:23:30;;;;;;;17.15;7.47;;;21.20;83.20;;;;;;4994018;28;20030;-76
2023/10/13 16:25:58;;;;;;;18.40;8.02;;;21.10;83.50;;;;;;5002592;28;20030;-76
2023/10/13 16:28:24;;;;;;;21.20;8.25;;;21.10;83.00;;;;;;4994756;28;20030;-75
2023/10/13 16:30:53;;;;;;;20.42;9.23;;;21.20;83.30;;;;;;5011476;28;20045;-76
2023/10/13 16:33:22;;;;;;;21.67;9.25;;;21.20;84.80;;;;;;5019957;28;20032;-76
2023/10/13 16:35:49;;;;;;;18.70;10.48;;;21.00;86.90;;;;;;5021870;28;20026;-77